Terminal Aerodrome Forecast
Issued by NWS Los Angeles, CA

Home | Current Version | Previous Version | Text Only | Print | Product List | Glossary On
Versions: 1 2 3 4 5 6 7 8 9 10 11 12 13 14 15 16 17 18 19 20 21 22
000
FTUS46 KLOX 012300 RRA
TAFSMX
TAF
KSMX 012340Z 0200/0224 31009KT P6SM SKC
     FM020300 31006KT 5SM BR BKN008
     FM020500 VRB03KT 3SM BR OVC004
     FM020900 VRB03KT 1SM BR OVC002
     FM021530 VRB03KT 4SM BR OVC005
     FM021700 30005KT P6SM SKC
     FM022000 31010KT P6SM SKC=

USA.gov is the U.S. government's official web portal to all federal, state and local government web resources and services.